My/aldabra — FFZV — position and weather

sailwx.info

Track history (hours):
 
Tides and Currents Weather Stations Pressure Air Temp Water Temp Dewpoint Dewpoint Depression Visibility Wind Speed Wind Dir Waves Ship Positions

My/aldabra

Last reported at 2017-May-31 11:35 UTC. Time now 2017-Jun-25 12:25 UTC.
Position N 43°24' E 007°21'.
Warning: this ship's position is 25 days out of date.

Length 23 m; draft 1.9 m.

Type: Ship. MMSI: 228004800.

Date/timePositionNaut miles runAvg speedWind from/ knotsBaromVisibWave heightAir tempDewpointWater temp
2017-May-31 11:35N 43°24' E 007°21'210.5
2017-May-31 11:25N 43°23' E 007°23'1710.5
2017-May-31 09:49N 43°12' E 007°41'310.3
2017-May-31 09:30N 43°10' E 007°44'510.2
2017-May-31 09:00N 43°07' E 007°50'610.2
2017-May-31 08:22N 43°03' E 007°57'410.4
2017-May-31 07:59N 43°01' E 008°01'510.2
2017-May-31 07:28N 42°57' E 008°07'5 9.8
2017-May-31 07:00N 42°55' E 008°12'510.1
2017-May-31 06:30N 42°51' E 008°17'5 9.9
2017-May-31 06:00N 42°48' E 008°22'810.1
2017-May-31 05:15N 42°44' E 008°30'410.2
2017-May-31 04:51N 42°41' E 008°35'410.1
2017-May-31 04:29N 42°39' E 008°39'510.1
2017-May-31 04:00N 42°36' E 008°44'3 5.1
2017-May-31 03:30N 42°34' E 008°46'0 0.0
2017-May-31 02:52N 42°34' E 008°46'0 0.0
2017-May-31 02:30N 42°34' E 008°46'0 0.0
2017-May-31 01:58N 42°34' E 008°46'0 0.0
2017-May-30 12:00N 42°34' E 008°46'0 0.0
2017-May-30 11:23N 42°34' E 008°46'0 0.0
2017-May-30 11:00N 42°34' E 008°46'2 2.9
2017-May-30 10:20N 42°35' E 008°44'4 9.5
2017-May-30 09:57N 42°33' E 008°40'8 9.7
2017-May-30 09:08N 42°26' E 008°35'211.5
2017-May-30 08:59N 42°24' E 008°34'15 0.7
2017-May-29 11:04N 42°09' E 008°34'313.3
2017-May-29 10:50N 42°06' E 008°33'3 8.0
2017-May-29 10:29N 42°03' E 008°34'66 1.4
2017-May-27 10:08N 41°10' E 009°26'2 9.9
2017-May-27 09:58N 41°10' E 009°28'2 3.5
2017-May-27 09:25N 41°09' E 009°31'0 0.0
2017-May-27 09:00N 41°09' E 009°31'0 0.0
2017-May-27 08:26N 41°09' E 009°31'0 0.0
2017-May-27 07:59N 41°09' E 009°31'0 0.0
2017-May-27 07:24N 41°09' E 009°31'7 0.2
2017-May-25 12:10N 41°02' E 009°31'0 0.0
2017-May-25 12:00N 41°02' E 009°31'0 0.0
2017-May-25 11:25N 41°02' E 009°31'0 0.0
2017-May-25 10:54N 41°02' E 009°31'0 0.0
2017-May-25 10:25N 41°02' E 009°31'0 0.0
2017-May-25 09:57N 41°02' E 009°31'4 2.5
2017-May-25 08:22N 41°01' E 009°37'3 8.6
2017-May-25 07:58N 40°59' E 009°40'5 9.7
2017-May-25 07:26N 40°54' E 009°40'1 1.9
2017-May-25 06:51N 40°53' E 009°39'0 0.0
2017-May-25 06:28N 40°53' E 009°39'0 0.0
2017-May-25 05:58N 40°53' E 009°39'0 0.0
2017-May-25 05:22N 40°53' E 009°39'0 0.0
2017-May-25 04:54N 40°53' E 009°39'0 0.0
2017-May-25 04:23N 40°53' E 009°39'0 0.0
2017-May-25 03:58N 40°53' E 009°39'0 0.0
2017-May-25 03:30N 40°53' E 009°39'0 0.0
2017-May-25 02:54N 40°53' E 009°39'0 0.0
2017-May-25 02:29N 40°53' E 009°39'0 0.0
2017-May-25 01:55N 40°53' E 009°39'0 0.0
2017-May-25 01:29N 40°53' E 009°39'0 0.0
2017-May-25 00:51N 40°53' E 009°39'0 0.0
2017-May-25 00:20N 40°53' E 009°39'0 0.0
2017-May-24 23:54N 40°53' E 009°39'0 0.0
2017-May-24 23:15N 40°53' E 009°39'0 0.0
2017-May-24 23:00N 40°53' E 009°39'0 0.0
2017-May-24 22:30N 40°53' E 009°39'0 0.0
2017-May-24 22:00N 40°53' E 009°39'0 0.0
2017-May-24 21:30N 40°53' E 009°39'0 0.0
2017-May-24 20:54N 40°53' E 009°39'0 0.0
2017-May-24 20:25N 40°53' E 009°39'0 0.0
2017-May-24 19:57N 40°53' E 009°39'0 0.0
2017-May-24 19:24N 40°53' E 009°39'0 0.0
2017-May-24 18:54N 40°53' E 009°39'0 0.0
2017-May-24 18:06N 40°53' E 009°39'0 0.0
2017-May-24 17:42N 40°53' E 009°39'0 0.0
2017-May-24 17:29N 40°53' E 009°39'0 0.0
2017-May-24 16:44N 40°53' E 009°39'0 0.0
2017-May-24 16:11N 40°53' E 009°39'0 0.0
2017-May-24 15:48N 40°53' E 009°39'0 0.0
2017-May-24 15:14N 40°53' E 009°39'0 0.0
2017-May-24 14:59N 40°53' E 009°39'0 0.1
2017-May-24 14:22N 40°53' E 009°39'4 0.1
2017-May-23 06:38N 40°50' E 009°42'0 0.0
2017-May-23 06:30N 40°50' E 009°42'0 0.0
2017-May-23 05:39N 40°50' E 009°42'0 0.0
2017-May-23 05:21N 40°50' E 009°42'0 0.0
2017-May-23 05:00N 40°50' E 009°42'0 0.0
2017-May-23 04:27N 40°50' E 009°42'0 0.0
2017-May-23 03:55N 40°50' E 009°42'0 0.0
2017-May-23 03:04N 40°50' E 009°42'0 0.0
2017-May-23 02:54N 40°50' E 009°42'0 0.0
2017-May-23 02:28N 40°50' E 009°42'0 0.0
2017-May-23 01:54N 40°50' E 009°42'0 0.0
2017-May-23 01:30N 40°50' E 009°42'0 0.0
2017-May-23 00:59N 40°50' E 009°42'0 0.0
2017-May-23 00:29N 40°50' E 009°42'0 0.0
2017-May-22 23:51N 40°50' E 009°42'0 0.0
2017-May-22 23:17N 40°50' E 009°42'0 0.0
2017-May-22 22:59N 40°50' E 009°42'0 0.0
2017-May-22 22:29N 40°50' E 009°42'0 0.0
2017-May-22 21:54N 40°50' E 009°42'0 0.0
2017-May-22 21:29N 40°50' E 009°42'0 0.0
2017-May-22 20:45N 40°50' E 009°42'0 0.0
2017-May-22 17:42N 40°50' E 009°42'0 0.0
2017-May-22 17:20N 40°50' E 009°42'0 0.0
2017-May-22 16:44N 40°50' E 009°42'0 0.0
2017-May-22 16:14N 40°50' E 009°42'0 0.0
2017-May-22 15:45N 40°50' E 009°42'0 0.0
2017-May-22 15:12N 40°50' E 009°42'0 0.0
2017-May-22 10:52N 40°50' E 009°42'0 0.3
2017-May-22 10:25N 40°50' E 009°42'2 4.5
2017-May-22 09:57N 40°52' E 009°42'3 4.0
2017-May-22 09:20N 40°53' E 009°39'0 0.0
2017-May-22 08:58N 40°53' E 009°39'0 0.0
2017-May-22 08:25N 40°53' E 009°39'1 1.2
2017-May-22 07:58N 40°53' E 009°39'  
Track history (hours):
 
Tides and Currents Weather Stations Pressure Air Temp Water Temp Dewpoint Dewpoint Depression Visibility Wind Speed Wind Dir Waves Ship Positions

My/aldabra

Last reported at 2017-May-31 11:35 UTC. Time now 2017-Jun-25 12:25 UTC.
Position N 43°24' E 007°21'.
Warning: this ship's position is 25 days out of date.

Length 23 m; draft 1.9 m.

Type: Ship. MMSI: 228004800.

Date/timePositionNaut miles runAvg speedWind from/ knotsBaromVisibWave heightAir tempDewpointWater temp
2017-May-31 11:35N 43°24' E 007°21'210.5
2017-May-31 11:25N 43°23' E 007°23'1710.5
2017-May-31 09:49N 43°12' E 007°41'310.3
2017-May-31 09:30N 43°10' E 007°44'510.2
2017-May-31 09:00N 43°07' E 007°50'610.2
2017-May-31 08:22N 43°03' E 007°57'410.4
2017-May-31 07:59N 43°01' E 008°01'510.2
2017-May-31 07:28N 42°57' E 008°07'5 9.8
2017-May-31 07:00N 42°55' E 008°12'510.1
2017-May-31 06:30N 42°51' E 008°17'5 9.9
2017-May-31 06:00N 42°48' E 008°22'810.1
2017-May-31 05:15N 42°44' E 008°30'410.2
2017-May-31 04:51N 42°41' E 008°35'410.1
2017-May-31 04:29N 42°39' E 008°39'510.1
2017-May-31 04:00N 42°36' E 008°44'3 5.1
2017-May-31 03:30N 42°34' E 008°46'0 0.0
2017-May-31 02:52N 42°34' E 008°46'0 0.0
2017-May-31 02:30N 42°34' E 008°46'0 0.0
2017-May-31 01:58N 42°34' E 008°46'0 0.0
2017-May-30 12:00N 42°34' E 008°46'0 0.0
2017-May-30 11:23N 42°34' E 008°46'0 0.0
2017-May-30 11:00N 42°34' E 008°46'2 2.9
2017-May-30 10:20N 42°35' E 008°44'4 9.5
2017-May-30 09:57N 42°33' E 008°40'8 9.7
2017-May-30 09:08N 42°26' E 008°35'211.5
2017-May-30 08:59N 42°24' E 008°34'15 0.7
2017-May-29 11:04N 42°09' E 008°34'313.3
2017-May-29 10:50N 42°06' E 008°33'3 8.0
2017-May-29 10:29N 42°03' E 008°34'66 1.4
2017-May-27 10:08N 41°10' E 009°26'2 9.9
2017-May-27 09:58N 41°10' E 009°28'2 3.5
2017-May-27 09:25N 41°09' E 009°31'0 0.0
2017-May-27 09:00N 41°09' E 009°31'0 0.0
2017-May-27 08:26N 41°09' E 009°31'0 0.0
2017-May-27 07:59N 41°09' E 009°31'0 0.0
2017-May-27 07:24N 41°09' E 009°31'7 0.2
2017-May-25 12:10N 41°02' E 009°31'0 0.0
2017-May-25 12:00N 41°02' E 009°31'0 0.0
2017-May-25 11:25N 41°02' E 009°31'0 0.0
2017-May-25 10:54N 41°02' E 009°31'0 0.0
2017-May-25 10:25N 41°02' E 009°31'0 0.0
2017-May-25 09:57N 41°02' E 009°31'4 2.5
2017-May-25 08:22N 41°01' E 009°37'3 8.6
2017-May-25 07:58N 40°59' E 009°40'5 9.7
2017-May-25 07:26N 40°54' E 009°40'1 1.9
2017-May-25 06:51N 40°53' E 009°39'0 0.0
2017-May-25 06:28N 40°53' E 009°39'0 0.0
2017-May-25 05:58N 40°53' E 009°39'0 0.0
2017-May-25 05:22N 40°53' E 009°39'0 0.0
2017-May-25 04:54N 40°53' E 009°39'0 0.0
2017-May-25 04:23N 40°53' E 009°39'0 0.0
2017-May-25 03:58N 40°53' E 009°39'0 0.0
2017-May-25 03:30N 40°53' E 009°39'0 0.0
2017-May-25 02:54N 40°53' E 009°39'0 0.0
2017-May-25 02:29N 40°53' E 009°39'0 0.0
2017-May-25 01:55N 40°53' E 009°39'0 0.0
2017-May-25 01:29N 40°53' E 009°39'0 0.0
2017-May-25 00:51N 40°53' E 009°39'0 0.0
2017-May-25 00:20N 40°53' E 009°39'0 0.0
2017-May-24 23:54N 40°53' E 009°39'0 0.0
2017-May-24 23:15N 40°53' E 009°39'0 0.0
2017-May-24 23:00N 40°53' E 009°39'0 0.0
2017-May-24 22:30N 40°53' E 009°39'0 0.0
2017-May-24 22:00N 40°53' E 009°39'0 0.0
2017-May-24 21:30N 40°53' E 009°39'0 0.0
2017-May-24 20:54N 40°53' E 009°39'0 0.0
2017-May-24 20:25N 40°53' E 009°39'0 0.0
2017-May-24 19:57N 40°53' E 009°39'0 0.0
2017-May-24 19:24N 40°53' E 009°39'0 0.0
2017-May-24 18:54N 40°53' E 009°39'0 0.0
2017-May-24 18:06N 40°53' E 009°39'0 0.0
2017-May-24 17:42N 40°53' E 009°39'0 0.0
2017-May-24 17:29N 40°53' E 009°39'0 0.0
2017-May-24 16:44N 40°53' E 009°39'0 0.0
2017-May-24 16:11N 40°53' E 009°39'0 0.0
2017-May-24 15:48N 40°53' E 009°39'0 0.0
2017-May-24 15:14N 40°53' E 009°39'0 0.0
2017-May-24 14:59N 40°53' E 009°39'0 0.1
2017-May-24 14:22N 40°53' E 009°39'4 0.1
2017-May-23 06:38N 40°50' E 009°42'0 0.0
2017-May-23 06:30N 40°50' E 009°42'0 0.0
2017-May-23 05:39N 40°50' E 009°42'0 0.0
2017-May-23 05:21N 40°50' E 009°42'0 0.0
2017-May-23 05:00N 40°50' E 009°42'0 0.0
2017-May-23 04:27N 40°50' E 009°42'0 0.0
2017-May-23 03:55N 40°50' E 009°42'0 0.0
2017-May-23 03:04N 40°50' E 009°42'0 0.0
2017-May-23 02:54N 40°50' E 009°42'0 0.0
2017-May-23 02:28N 40°50' E 009°42'0 0.0
2017-May-23 01:54N 40°50' E 009°42'0 0.0
2017-May-23 01:30N 40°50' E 009°42'0 0.0
2017-May-23 00:59N 40°50' E 009°42'0 0.0
2017-May-23 00:29N 40°50' E 009°42'0 0.0
2017-May-22 23:51N 40°50' E 009°42'0 0.0
2017-May-22 23:17N 40°50' E 009°42'0 0.0
2017-May-22 22:59N 40°50' E 009°42'0 0.0
2017-May-22 22:29N 40°50' E 009°42'0 0.0
2017-May-22 21:54N 40°50' E 009°42'0 0.0
2017-May-22 21:29N 40°50' E 009°42'0 0.0
2017-May-22 20:45N 40°50' E 009°42'0 0.0
2017-May-22 17:42N 40°50' E 009°42'0 0.0
2017-May-22 17:20N 40°50' E 009°42'0 0.0
2017-May-22 16:44N 40°50' E 009°42'0 0.0
2017-May-22 16:14N 40°50' E 009°42'0 0.0
2017-May-22 15:45N 40°50' E 009°42'0 0.0
2017-May-22 15:12N 40°50' E 009°42'0 0.0
2017-May-22 10:52N 40°50' E 009°42'0 0.3
2017-May-22 10:25N 40°50' E 009°42'2 4.5
2017-May-22 09:57N 40°52' E 009°42'3 4.0
2017-May-22 09:20N 40°53' E 009°39'0 0.0
2017-May-22 08:58N 40°53' E 009°39'0 0.0
2017-May-22 08:25N 40°53' E 009°39'1 1.2
2017-May-22 07:58N 40°53' E 009°39'  

Dump ship's entire track history